EDT,Max TemperatureF,Mean TemperatureF,Min TemperatureF,Max Dew PointF,MeanDew PointF,Min DewpointF,Max Humidity, Mean Humidity, Min Humidity, Max Sea Level PressureIn, Mean Sea Level PressureIn, Min Sea Level PressureIn, Max VisibilityMiles, Mean VisibilityMiles, Min VisibilityMiles, Max Wind SpeedMPH, Mean Wind SpeedMPH, Max Gust SpeedMPH,PrecipitationIn, CloudCover, Events, WindDirDegrees
2014-3-1,54,44,33,40,30,19,92,71,50,30.35,30.28,30.23,10,10,5,14,4,15,0.00,6,,41
2014-3-2,70,51,32,46,40,31,100,70,39,30.24,30.13,29.96,10,8,2,15,5,19,0.00,0,,208
2014-3-3,63,46,28,55,39,22,93,74,55,30.23,29.97,29.86,10,7,1,28,13,36,0.15,6,Rain,25
2014-3-4,38,30,21,24,20,14,81,68,54,30.32,30.24,30.20,10,10,10,21,11,27,0.00,7,,27
2014-3-5,42,37,32,36,30,22,92,74,56,30.25,30.19,30.14,10,9,4,12,6,14,0.13,7,,20
2014-3-6,43,38,32,36,31,21,92,75,57,30.30,30.15,29.89,10,7,2,29,17,49,0.72,6,Rain,40
2014-3-7,41,38,35,39,37,33,93,89,85,29.98,29.85,29.80,10,6,2,33,15,44,0.71,7,Rain,6
2014-3-8,66,48,29,46,39,28,100,72,44,30.11,30.04,29.97,10,9,2,15,6,18,0.00,0,,242
2014-3-9,69,56,43,46,43,41,93,65,36,30.09,30.03,29.99,10,10,7,13,5,17,0.00,0,,268
2014-3-10,72,55,37,44,39,30,100,62,24,30.01,29.92,29.83,10,8,2,15,4,20,0.00,0,,259
2014-3-11,76,59,41,49,44,40,89,60,31,29.84,29.77,29.69,10,10,7,15,4,19,0.00,0,,221
2014-3-12,72,60,48,59,53,26,90,64,38,29.71,29.52,29.33,10,9,5,32,14,43,0.01,4,Rain,226
2014-3-13,51,41,30,26,18,8,73,39,18,30.24,29.99,29.68,10,10,10,21,14,32,0.00,0,,312
2014-3-14,62,43,24,40,25,16,92,56,20,30.36,30.25,30.15,10,10,10,15,6,23,0.00,0,,179
2014-3-15,72,59,46,43,40,36,74,51,27,30.14,30.05,29.97,10,10,10,20,9,25,0.00,2,,233
2014-3-16,56,51,45,52,49,42,93,82,71,30.04,29.91,29.77,10,7,2,17,6,21,0.21,6,Rain,98
2014-3-17,52,43,34,53,36,33,96,91,85,29.95,29.84,29.75,10,6,2,18,12,24,0.29,8,Rain,34
2014-3-18,43,39,34,38,34,32,100,91,82,30.14,29.98,29.88,10,6,2,20,12,27,0.02,8,Rain,15
2014-3-19,51,45,39,45,40,37,100,90,80,30.17,30.12,30.02,10,6,2,12,6,14,0.02,7,Rain,329
2014-3-20,69,55,40,47,41,36,100,66,31,30.05,30.00,29.94,10,4,0,15,4,20,0.00,1,Fog,268
2014-3-21,69,52,35,39,33,28,92,57,22,30.17,30.11,30.03,10,10,10,10,4,14,0.00,0,,155
2014-3-22,77,59,41,59,47,38,89,64,38,30.10,30.02,29.94,10,10,2,22,6,27,0.00,1,,231
2014-3-23,65,53,40,58,50,39,100,76,51,30.12,29.97,29.92,10,5,0,21,6,26,T,5,Fog,1
2014-3-24,54,45,36,39,32,24,92,64,35,30.27,30.19,30.11,10,8,2,16,6,22,0.00,1,,40
2014-3-25,49,43,36,42,37,30,86,76,65,30.10,29.87,29.75,10,10,5,31,8,42,0.05,7,Rain,343
2014-3-26,51,40,28,28,20,13,85,53,21,30.33,30.20,30.00,10,10,10,21,11,28,0.00,0,,303
2014-3-27,61,43,25,38,27,17,92,57,21,30.48,30.39,30.31,10,10,8,18,6,26,0.00,0,,154
2014-3-28,71,55,39,61,55,37,100,79,57,30.29,30.17,30.11,10,7,2,18,5,26,0.33,6,Rain,169
2014-3-29,72,66,60,65,61,59,100,89,78,30.11,29.92,29.62,10,6,2,21,7,29,0.78,8,Rain,145
2014-3-30,63,55,46,55,37,25,78,55,32,29.99,29.77,29.62,10,10,10,32,18,41,0.00,6,,295
2014-3-31,72,56,39,42,31,27,82,51,19,30.12,30.06,30.00,10,10,10,15,6,20,0.00,0,,301